CheckWX is a tool to help pilots better visualize weather data.  It is not intended as a substitute for an official pre-flight weather briefing.

21:23:32 UTC

KGCM METAR
Claremore Regional Airport
Claremore, Oklahoma, USA
Current

9 mins ago

KGCM 182115Z AUTO 05009KT 10SM CLR 02/M07 A3044 RMK AO2 TSNO
Observed
Feb-18 @ 21:15 UTC
Wind
  • 050° at 9 KTS
Visibility
10 SM
Flight Rules
VFR
Cloud Levels
  • Clear skies
Temperature
C / 36°F
Dewpoint
-7°C / 19°F
Humidity
52%
Altimeter
30.44" Hg
Pressure
1030.81 hPa
Previous

29 mins ago

KGCM 182055Z AUTO 03009G14KT 10SM CLR 02/M07 A3044 RMK AO2 TSNO
Observed
Feb-18 @ 20:55 UTC
Wind
  • 030° at 9 KTS
  • Gusting to 14 KTS
Visibility
10 SM
Flight Rules
VFR
Cloud Levels
  • Clear skies
Temperature
C / 36°F
Dewpoint
-7°C / 19°F
Humidity
52%
Altimeter
30.44" Hg
Pressure
1030.81 hPa
Previous

49 mins ago

KGCM 182035Z AUTO 01007KT 10SM CLR 02/M07 A3044 RMK AO2 TSNO
Observed
Feb-18 @ 20:35 UTC
Wind
  • 010° at 7 KTS
Visibility
10 SM
Flight Rules
VFR
Cloud Levels
  • Clear skies
Temperature
C / 36°F
Dewpoint
-7°C / 19°F
Humidity
52%
Altimeter
30.44" Hg
Pressure
1030.81 hPa